sensor_id;sensor_type;location;lat;lon;timestamp;P1;durP1;ratioP1;P2;durP2;ratioP2
60370;SDS011;48550;40.588;49.684;2022-09-13T00:00:24;198.88;;;18.15;;
60370;SDS011;48550;40.588;49.684;2022-09-13T00:02:50;224.50;;;22.10;;
60370;SDS011;48550;40.588;49.684;2022-09-13T00:05:15;246.98;;;22.25;;
60370;SDS011;48550;40.588;49.684;2022-09-13T00:07:41;242.05;;;21.98;;
60370;SDS011;48550;40.588;49.684;2022-09-13T00:10:07;213.30;;;19.95;;
60370;SDS011;48550;40.588;49.684;2022-09-13T00:12:33;216.35;;;20.63;;
60370;SDS011;48550;40.588;49.684;2022-09-13T00:14:58;245.90;;;22.83;;
60370;SDS011;48550;40.588;49.684;2022-09-13T00:17:24;233.27;;;20.08;;
60370;SDS011;48550;40.588;49.684;2022-09-13T00:19:50;212.20;;;19.98;;
60370;SDS011;48550;40.588;49.684;2022-09-13T00:22:16;239.30;;;23.10;;
60370;SDS011;48550;40.588;49.684;2022-09-13T00:24:42;222.52;;;19.90;;
60370;SDS011;48550;40.588;49.684;2022-09-13T00:27:08;245.43;;;21.30;;
60370;SDS011;48550;40.588;49.684;2022-09-13T00:29:35;210.30;;;22.63;;
60370;SDS011;48550;40.588;49.684;2022-09-13T00:32:00;237.95;;;21.50;;
60370;SDS011;48550;40.588;49.684;2022-09-13T00:34:26;230.70;;;20.77;;
60370;SDS011;48550;40.588;49.684;2022-09-13T00:36:52;247.35;;;20.35;;
60370;SDS011;48550;40.588;49.684;2022-09-13T00:39:18;230.70;;;21.77;;
60370;SDS011;48550;40.588;49.684;2022-09-13T00:41:43;233.70;;;20.08;;
60370;SDS011;48550;40.588;49.684;2022-09-13T00:47:14;260.38;;;22.38;;
60370;SDS011;48550;40.588;49.684;2022-09-13T00:49:48;246.68;;;20.42;;
60370;SDS011;48550;40.588;49.684;2022-09-13T00:52:18;266.60;;;24.25;;
60370;SDS011;48550;40.588;49.684;2022-09-13T00:54:48;278.13;;;24.35;;
60370;SDS011;48550;40.588;49.684;2022-09-13T00:57:19;264.05;;;24.60;;
60370;SDS011;48550;40.588;49.684;2022-09-13T00:59:50;245.60;;;22.55;;
60370;SDS011;48550;40.588;49.684;2022-09-13T01:02:31;235.20;;;19.77;;
60370;SDS011;48550;40.588;49.684;2022-09-13T01:04:57;226.73;;;20.00;;
60370;SDS011;48550;40.588;49.684;2022-09-13T01:07:23;219.95;;;19.55;;
60370;SDS011;48550;40.588;49.684;2022-09-13T01:09:49;231.40;;;22.20;;
60370;SDS011;48550;40.588;49.684;2022-09-13T01:12:21;248.30;;;21.65;;
60370;SDS011;48550;40.588;49.684;2022-09-13T01:15:09;241.37;;;23.33;;
60370;SDS011;48550;40.588;49.684;2022-09-13T01:17:35;226.00;;;20.88;;
60370;SDS011;48550;40.588;49.684;2022-09-13T01:20:04;228.27;;;21.58;;
60370;SDS011;48550;40.588;49.684;2022-09-13T01:31:10;192.80;;;21.13;;
60370;SDS011;48550;40.588;49.684;2022-09-13T01:39:00;171.45;;;21.05;;
60370;SDS011;48550;40.588;49.684;2022-09-13T01:50:17;178.73;;;20.65;;
60370;SDS011;48550;40.588;49.684;2022-09-13T01:52:53;177.75;;;19.17;;
60370;SDS011;48550;40.588;49.684;2022-09-13T01:58:40;153.63;;;19.88;;
60370;SDS011;48550;40.588;49.684;2022-09-13T02:00:55;174.52;;;19.90;;
60370;SDS011;48550;40.588;49.684;2022-09-13T02:03:57;168.00;;;19.88;;
60370;SDS011;48550;40.588;49.684;2022-09-13T02:07:20;159.75;;;18.45;;
60370;SDS011;48550;40.588;49.684;2022-09-13T02:09:49;152.65;;;18.85;;
60370;SDS011;48550;40.588;49.684;2022-09-13T02:12:22;158.73;;;17.92;;
60370;SDS011;48550;40.588;49.684;2022-09-13T02:17:41;142.20;;;16.13;;
60370;SDS011;48550;40.588;49.684;2022-09-13T02:20:27;154.98;;;16.92;;
60370;SDS011;48550;40.588;49.684;2022-09-13T02:22:56;127.22;;;16.23;;
60370;SDS011;48550;40.588;49.684;2022-09-13T02:25:25;145.88;;;17.63;;
60370;SDS011;48550;40.588;49.684;2022-09-13T02:27:54;151.93;;;15.30;;
60370;SDS011;48550;40.588;49.684;2022-09-13T02:30:26;124.75;;;15.73;;
60370;SDS011;48550;40.588;49.684;2022-09-13T02:32:56;111.70;;;14.00;;
60370;SDS011;48550;40.588;49.684;2022-09-13T02:35:32;129.40;;;15.52;;
60370;SDS011;48550;40.588;49.684;2022-09-13T02:38:21;142.15;;;13.77;;
60370;SDS011;48550;40.588;49.684;2022-09-13T02:41:00;125.30;;;14.25;;
60370;SDS011;48550;40.588;49.684;2022-09-13T02:43:53;144.45;;;17.02;;
60370;SDS011;48550;40.588;49.684;2022-09-13T02:52:06;130.80;;;13.40;;
60370;SDS011;48550;40.588;49.684;2022-09-13T02:58:11;131.63;;;15.32;;
60370;SDS011;48550;40.588;49.684;2022-09-13T03:00:34;153.88;;;17.35;;
60370;SDS011;48550;40.588;49.684;2022-09-13T03:03:04;150.38;;;15.38;;
60370;SDS011;48550;40.588;49.684;2022-09-13T03:05:33;163.63;;;14.52;;
60370;SDS011;48550;40.588;49.684;2022-09-13T03:07:59;145.55;;;15.82;;
60370;SDS011;48550;40.588;49.684;2022-09-13T03:10:27;177.77;;;16.13;;
60370;SDS011;48550;40.588;49.684;2022-09-13T03:13:21;170.90;;;15.38;;
60370;SDS011;48550;40.588;49.684;2022-09-13T03:26:52;178.48;;;17.38;;
60370;SDS011;48550;40.588;49.684;2022-09-13T03:29:47;164.77;;;16.13;;
60370;SDS011;48550;40.588;49.684;2022-09-13T03:38:04;166.27;;;17.00;;
60370;SDS011;48550;40.588;49.684;2022-09-13T03:43:01;164.00;;;18.35;;
60370;SDS011;48550;40.588;49.684;2022-09-13T03:45:29;138.90;;;16.23;;
60370;SDS011;48550;40.588;49.684;2022-09-13T03:47:58;155.43;;;16.52;;
60370;SDS011;48550;40.588;49.684;2022-09-13T03:50:26;159.93;;;17.42;;
60370;SDS011;48550;40.588;49.684;2022-09-13T03:52:57;117.20;;;12.85;;
60370;SDS011;48550;40.588;49.684;2022-09-13T03:55:27;148.68;;;14.73;;
60370;SDS011;48550;40.588;49.684;2022-09-13T03:57:56;139.25;;;15.45;;
60370;SDS011;48550;40.588;49.684;2022-09-13T04:00:22;143.45;;;15.35;;
60370;SDS011;48550;40.588;49.684;2022-09-13T04:02:48;179.13;;;16.77;;
60370;SDS011;48550;40.588;49.684;2022-09-13T04:05:14;133.18;;;14.65;;
60370;SDS011;48550;40.588;49.684;2022-09-13T04:07:39;160.57;;;17.35;;
60370;SDS011;48550;40.588;49.684;2022-09-13T04:10:05;134.85;;;15.55;;
60370;SDS011;48550;40.588;49.684;2022-09-13T04:12:31;136.20;;;15.20;;
60370;SDS011;48550;40.588;49.684;2022-09-13T04:14:57;130.43;;;14.30;;
60370;SDS011;48550;40.588;49.684;2022-09-13T04:17:23;113.25;;;14.80;;
60370;SDS011;48550;40.588;49.684;2022-09-13T04:19:48;126.43;;;14.65;;
60370;SDS011;48550;40.588;49.684;2022-09-13T04:22:16;112.68;;;13.45;;
60370;SDS011;48550;40.588;49.684;2022-09-13T04:24:41;139.02;;;13.65;;
60370;SDS011;48550;40.588;49.684;2022-09-13T04:27:08;108.25;;;12.60;;
60370;SDS011;48550;40.588;49.684;2022-09-13T04:29:34;125.88;;;12.55;;
60370;SDS011;48550;40.588;49.684;2022-09-13T04:32:00;103.13;;;13.45;;
60370;SDS011;48550;40.588;49.684;2022-09-13T04:34:25;114.28;;;13.88;;
60370;SDS011;48550;40.588;49.684;2022-09-13T04:36:52;138.18;;;13.05;;
60370;SDS011;48550;40.588;49.684;2022-09-13T04:39:18;115.55;;;12.07;;
60370;SDS011;48550;40.588;49.684;2022-09-13T04:41:45;93.32;;;11.52;;
60370;SDS011;48550;40.588;49.684;2022-09-13T04:44:12;99.25;;;11.55;;
60370;SDS011;48550;40.588;49.684;2022-09-13T04:46:39;99.20;;;12.70;;
60370;SDS011;48550;40.588;49.684;2022-09-13T04:49:05;106.80;;;11.48;;
60370;SDS011;48550;40.588;49.684;2022-09-13T04:51:33;126.85;;;15.35;;
60370;SDS011;48550;40.588;49.684;2022-09-13T04:53:59;91.95;;;12.35;;
60370;SDS011;48550;40.588;49.684;2022-09-13T04:56:25;113.35;;;11.27;;
60370;SDS011;48550;40.588;49.684;2022-09-13T04:58:51;89.13;;;12.07;;
60370;SDS011;48550;40.588;49.684;2022-09-13T05:01:18;80.85;;;10.98;;
60370;SDS011;48550;40.588;49.684;2022-09-13T05:03:45;103.85;;;13.30;;
60370;SDS011;48550;40.588;49.684;2022-09-13T05:06:12;99.00;;;12.13;;
60370;SDS011;48550;40.588;49.684;2022-09-13T05:08:39;87.38;;;10.82;;
60370;SDS011;48550;40.588;49.684;2022-09-13T05:11:05;82.97;;;10.82;;
60370;SDS011;48550;40.588;49.684;2022-09-13T05:13:32;72.80;;;8.93;;
60370;SDS011;48550;40.588;49.684;2022-09-13T05:15:59;65.57;;;9.38;;
60370;SDS011;48550;40.588;49.684;2022-09-13T05:18:30;83.97;;;10.02;;
60370;SDS011;48550;40.588;49.684;2022-09-13T05:21:00;90.00;;;10.57;;
60370;SDS011;48550;40.588;49.684;2022-09-13T05:23:28;69.32;;;9.35;;
60370;SDS011;48550;40.588;49.684;2022-09-13T05:25:55;57.92;;;8.85;;
60370;SDS011;48550;40.588;49.684;2022-09-13T05:28:31;62.53;;;9.30;;
60370;SDS011;48550;40.588;49.684;2022-09-13T05:31:10;64.00;;;9.15;;
60370;SDS011;48550;40.588;49.684;2022-09-13T05:33:42;64.30;;;9.10;;
60370;SDS011;48550;40.588;49.684;2022-09-13T05:36:09;57.05;;;9.45;;
60370;SDS011;48550;40.588;49.684;2022-09-13T05:38:34;67.05;;;7.57;;
60370;SDS011;48550;40.588;49.684;2022-09-13T05:41:01;87.55;;;11.85;;
60370;SDS011;48550;40.588;49.684;2022-09-13T05:43:29;60.63;;;7.97;;
60370;SDS011;48550;40.588;49.684;2022-09-13T05:46:03;72.10;;;8.60;;
60370;SDS011;48550;40.588;49.684;2022-09-13T05:48:30;54.45;;;7.90;;
60370;SDS011;48550;40.588;49.684;2022-09-13T05:51:02;67.85;;;8.68;;
60370;SDS011;48550;40.588;49.684;2022-09-13T05:53:36;69.45;;;8.32;;
60370;SDS011;48550;40.588;49.684;2022-09-13T05:56:07;67.70;;;9.48;;
60370;SDS011;48550;40.588;49.684;2022-09-13T05:58:33;72.75;;;8.27;;
60370;SDS011;48550;40.588;49.684;2022-09-13T06:01:03;72.07;;;8.63;;
60370;SDS011;48550;40.588;49.684;2022-09-13T06:03:29;72.28;;;9.00;;
60370;SDS011;48550;40.588;49.684;2022-09-13T06:05:55;54.65;;;7.68;;
60370;SDS011;48550;40.588;49.684;2022-09-13T06:08:24;57.00;;;8.05;;
60370;SDS011;48550;40.588;49.684;2022-09-13T06:10:54;78.55;;;8.68;;
60370;SDS011;48550;40.588;49.684;2022-09-13T06:13:40;66.97;;;9.77;;
60370;SDS011;48550;40.588;49.684;2022-09-13T06:16:07;40.95;;;7.07;;
60370;SDS011;48550;40.588;49.684;2022-09-13T06:18:35;64.30;;;7.53;;
60370;SDS011;48550;40.588;49.684;2022-09-13T06:21:05;69.07;;;8.63;;
60370;SDS011;48550;40.588;49.684;2022-09-13T06:23:36;46.08;;;7.50;;
60370;SDS011;48550;40.588;49.684;2022-09-13T06:26:06;49.92;;;7.18;;
60370;SDS011;48550;40.588;49.684;2022-09-13T06:28:34;48.25;;;8.45;;
60370;SDS011;48550;40.588;49.684;2022-09-13T06:31:11;44.85;;;7.50;;
60370;SDS011;48550;40.588;49.684;2022-09-13T06:33:39;43.42;;;7.15;;
60370;SDS011;48550;40.588;49.684;2022-09-13T06:36:09;44.03;;;7.68;;
60370;SDS011;48550;40.588;49.684;2022-09-13T06:38:38;48.38;;;6.65;;
60370;SDS011;48550;40.588;49.684;2022-09-13T06:41:06;51.17;;;7.03;;
60370;SDS011;48550;40.588;49.684;2022-09-13T06:43:33;57.20;;;6.88;;
60370;SDS011;48550;40.588;49.684;2022-09-13T06:46:03;58.30;;;7.20;;
60370;SDS011;48550;40.588;49.684;2022-09-13T06:50:57;44.30;;;7.03;;
60370;SDS011;48550;40.588;49.684;2022-09-13T06:53:24;60.03;;;7.47;;
60370;SDS011;48550;40.588;49.684;2022-09-13T06:55:59;50.40;;;6.95;;
60370;SDS011;48550;40.588;49.684;2022-09-13T06:58:46;41.90;;;6.70;;
60370;SDS011;48550;40.588;49.684;2022-09-13T07:01:14;47.10;;;6.97;;
60370;SDS011;48550;40.588;49.684;2022-09-13T07:03:55;65.72;;;7.78;;
60370;SDS011;48550;40.588;49.684;2022-09-13T07:06:24;51.20;;;5.80;;
60370;SDS011;48550;40.588;49.684;2022-09-13T07:08:52;49.80;;;7.60;;
60370;SDS011;48550;40.588;49.684;2022-09-13T07:11:20;54.25;;;6.75;;
60370;SDS011;48550;40.588;49.684;2022-09-13T07:13:51;48.60;;;6.28;;
60370;SDS011;48550;40.588;49.684;2022-09-13T07:16:19;40.42;;;6.43;;
60370;SDS011;48550;40.588;49.684;2022-09-13T07:18:52;47.72;;;6.53;;
60370;SDS011;48550;40.588;49.684;2022-09-13T07:21:20;42.03;;;6.10;;
60370;SDS011;48550;40.588;49.684;2022-09-13T07:23:46;50.20;;;6.30;;
60370;SDS011;48550;40.588;49.684;2022-09-13T07:26:12;42.40;;;5.22;;
60370;SDS011;48550;40.588;49.684;2022-09-13T07:28:40;40.38;;;5.70;;
60370;SDS011;48550;40.588;49.684;2022-09-13T07:31:09;40.60;;;5.72;;
60370;SDS011;48550;40.588;49.684;2022-09-13T07:33:40;33.78;;;5.65;;
60370;SDS011;48550;40.588;49.684;2022-09-13T07:36:07;50.20;;;5.88;;
60370;SDS011;48550;40.588;49.684;2022-09-13T07:38:34;43.95;;;5.47;;
60370;SDS011;48550;40.588;49.684;2022-09-13T07:41:01;40.63;;;5.35;;
60370;SDS011;48550;40.588;49.684;2022-09-13T07:43:29;36.05;;;5.40;;
60370;SDS011;48550;40.588;49.684;2022-09-13T07:45:55;36.63;;;5.93;;
60370;SDS011;48550;40.588;49.684;2022-09-13T07:48:25;42.97;;;5.95;;
60370;SDS011;48550;40.588;49.684;2022-09-13T07:50:56;31.58;;;5.43;;
60370;SDS011;48550;40.588;49.684;2022-09-13T07:53:26;38.78;;;6.22;;
60370;SDS011;48550;40.588;49.684;2022-09-13T07:55:52;30.85;;;5.07;;
60370;SDS011;48550;40.588;49.684;2022-09-13T07:58:19;27.73;;;4.82;;
60370;SDS011;48550;40.588;49.684;2022-09-13T08:00:44;32.17;;;4.95;;
60370;SDS011;48550;40.588;49.684;2022-09-13T08:03:10;32.58;;;4.40;;
60370;SDS011;48550;40.588;49.684;2022-09-13T08:05:39;27.90;;;4.70;;
60370;SDS011;48550;40.588;49.684;2022-09-13T08:08:06;24.70;;;4.03;;
60370;SDS011;48550;40.588;49.684;2022-09-13T08:10:32;41.28;;;4.90;;
60370;SDS011;48550;40.588;49.684;2022-09-13T08:12:58;30.17;;;3.95;;
60370;SDS011;48550;40.588;49.684;2022-09-13T08:15:25;30.30;;;4.47;;
60370;SDS011;48550;40.588;49.684;2022-09-13T08:17:50;34.67;;;5.20;;
60370;SDS011;48550;40.588;49.684;2022-09-13T08:20:18;30.52;;;4.40;;
60370;SDS011;48550;40.588;49.684;2022-09-13T08:22:45;29.98;;;4.35;;
60370;SDS011;48550;40.588;49.684;2022-09-13T08:25:10;20.45;;;3.92;;
60370;SDS011;48550;40.588;49.684;2022-09-13T08:27:36;26.33;;;3.60;;
60370;SDS011;48550;40.588;49.684;2022-09-13T08:30:02;23.83;;;4.65;;
60370;SDS011;48550;40.588;49.684;2022-09-13T08:32:29;27.63;;;4.32;;
60370;SDS011;48550;40.588;49.684;2022-09-13T08:34:55;25.30;;;4.32;;
60370;SDS011;48550;40.588;49.684;2022-09-13T08:37:21;31.83;;;4.25;;
60370;SDS011;48550;40.588;49.684;2022-09-13T08:39:47;27.55;;;4.57;;
60370;SDS011;48550;40.588;49.684;2022-09-13T08:42:21;27.63;;;4.53;;
60370;SDS011;48550;40.588;49.684;2022-09-13T08:45:06;20.98;;;4.18;;
60370;SDS011;48550;40.588;49.684;2022-09-13T08:47:46;32.92;;;4.93;;
60370;SDS011;48550;40.588;49.684;2022-09-13T08:50:22;50.72;;;5.75;;
60370;SDS011;48550;40.588;49.684;2022-09-13T08:55:48;40.72;;;6.13;;
60370;SDS011;48550;40.588;49.684;2022-09-13T09:04:07;52.00;;;5.63;;
60370;SDS011;48550;40.588;49.684;2022-09-13T09:06:52;51.55;;;5.47;;
60370;SDS011;48550;40.588;49.684;2022-09-13T09:09:41;31.08;;;5.65;;
60370;SDS011;48550;40.588;49.684;2022-09-13T09:12:24;37.40;;;6.90;;
60370;SDS011;48550;40.588;49.684;2022-09-13T09:15:12;42.08;;;6.47;;
60370;SDS011;48550;40.588;49.684;2022-09-13T09:17:59;40.47;;;6.23;;
60370;SDS011;48550;40.588;49.684;2022-09-13T09:20:36;52.85;;;7.05;;
60370;SDS011;48550;40.588;49.684;2022-09-13T09:23:28;52.50;;;7.07;;
60370;SDS011;48550;40.588;49.684;2022-09-13T09:26:15;45.92;;;6.55;;
60370;SDS011;48550;40.588;49.684;2022-09-13T09:28:49;35.22;;;6.75;;
60370;SDS011;48550;40.588;49.684;2022-09-13T09:39:38;42.88;;;6.47;;
60370;SDS011;48550;40.588;49.684;2022-09-13T09:42:14;43.00;;;5.72;;
60370;SDS011;48550;40.588;49.684;2022-09-13T09:44:44;39.05;;;5.55;;
60370;SDS011;48550;40.588;49.684;2022-09-13T09:52:42;36.00;;;6.60;;
60370;SDS011;48550;40.588;49.684;2022-09-13T09:55:31;37.70;;;6.03;;
60370;SDS011;48550;40.588;49.684;2022-09-13T10:00:26;34.75;;;6.70;;
60370;SDS011;48550;40.588;49.684;2022-09-13T10:02:56;46.80;;;6.47;;
60370;SDS011;48550;40.588;49.684;2022-09-13T10:05:42;43.85;;;5.90;;
60370;SDS011;48550;40.588;49.684;2022-09-13T10:08:29;38.20;;;6.30;;
60370;SDS011;48550;40.588;49.684;2022-09-13T10:10:57;38.53;;;6.60;;
60370;SDS011;48550;40.588;49.684;2022-09-13T10:13:25;36.92;;;6.13;;
60370;SDS011;48550;40.588;49.684;2022-09-13T10:18:24;41.65;;;5.75;;
60370;SDS011;48550;40.588;49.684;2022-09-13T10:21:02;31.48;;;5.35;;
60370;SDS011;48550;40.588;49.684;2022-09-13T10:23:30;42.60;;;5.97;;
60370;SDS011;48550;40.588;49.684;2022-09-13T10:28:29;37.78;;;6.65;;
60370;SDS011;48550;40.588;49.684;2022-09-13T10:30:59;43.45;;;6.97;;
60370;SDS011;48550;40.588;49.684;2022-09-13T10:36:05;35.85;;;5.72;;
60370;SDS011;48550;40.588;49.684;2022-09-13T10:38:38;43.70;;;5.68;;
60370;SDS011;48550;40.588;49.684;2022-09-13T10:41:08;38.72;;;6.45;;
60370;SDS011;48550;40.588;49.684;2022-09-13T10:43:35;32.83;;;5.22;;
60370;SDS011;48550;40.588;49.684;2022-09-13T10:46:03;29.98;;;4.85;;
60370;SDS011;48550;40.588;49.684;2022-09-13T10:48:43;32.85;;;5.85;;
60370;SDS011;48550;40.588;49.684;2022-09-13T10:51:33;33.33;;;4.95;;
60370;SDS011;48550;40.588;49.684;2022-09-13T10:56:32;38.55;;;6.55;;
60370;SDS011;48550;40.588;49.684;2022-09-13T11:04:50;30.58;;;5.15;;
60370;SDS011;48550;40.588;49.684;2022-09-13T11:10:10;40.97;;;5.72;;
60370;SDS011;48550;40.588;49.684;2022-09-13T11:12:48;45.40;;;7.43;;
60370;SDS011;48550;40.588;49.684;2022-09-13T11:18:13;35.00;;;5.28;;
60370;SDS011;48550;40.588;49.684;2022-09-13T11:23:39;35.53;;;5.50;;
60370;SDS011;48550;40.588;49.684;2022-09-13T11:34:57;48.33;;;6.75;;
60370;SDS011;48550;40.588;49.684;2022-09-13T11:37:56;41.40;;;6.25;;
60370;SDS011;48550;40.588;49.684;2022-09-13T11:40:50;26.90;;;5.60;;
60370;SDS011;48550;40.588;49.684;2022-09-13T11:57:05;32.65;;;5.35;;
60370;SDS011;48550;40.588;49.684;2022-09-13T11:59:37;31.20;;;5.25;;
60370;SDS011;48550;40.588;49.684;2022-09-13T12:07:49;31.60;;;6.05;;
60370;SDS011;48550;40.588;49.684;2022-09-13T12:10:24;37.83;;;6.15;;
60370;SDS011;48550;40.588;49.684;2022-09-13T12:12:58;38.28;;;6.03;;
60370;SDS011;48550;40.588;49.684;2022-09-13T12:15:37;43.30;;;6.07;;
60370;SDS011;48550;40.588;49.684;2022-09-13T12:20:53;28.42;;;4.97;;
60370;SDS011;48550;40.588;49.684;2022-09-13T12:26:20;36.78;;;6.68;;
60370;SDS011;48550;40.588;49.684;2022-09-13T12:28:55;31.90;;;4.43;;
60370;SDS011;48550;40.588;49.684;2022-09-13T12:31:25;42.22;;;6.60;;
60370;SDS011;48550;40.588;49.684;2022-09-13T12:33:53;30.75;;;6.22;;
60370;SDS011;48550;40.588;49.684;2022-09-13T12:44:54;33.40;;;5.65;;
60370;SDS011;48550;40.588;49.684;2022-09-13T12:51:01;33.60;;;6.28;;
60370;SDS011;48550;40.588;49.684;2022-09-13T13:02:24;32.55;;;5.85;;
60370;SDS011;48550;40.588;49.684;2022-09-13T13:05:04;37.80;;;5.72;;
60370;SDS011;48550;40.588;49.684;2022-09-13T13:07:42;30.33;;;5.63;;
60370;SDS011;48550;40.588;49.684;2022-09-13T13:10:23;38.95;;;5.68;;
60370;SDS011;48550;40.588;49.684;2022-09-13T13:12:54;45.30;;;7.00;;
60370;SDS011;48550;40.588;49.684;2022-09-13T13:17:51;37.10;;;6.50;;
60370;SDS011;48550;40.588;49.684;2022-09-13T13:33:54;44.08;;;8.18;;
60370;SDS011;48550;40.588;49.684;2022-09-13T13:38:58;53.05;;;8.25;;
60370;SDS011;48550;40.588;49.684;2022-09-13T13:46:42;66.10;;;9.13;;
60370;SDS011;48550;40.588;49.684;2022-09-13T13:57:56;39.78;;;8.43;;
60370;SDS011;48550;40.588;49.684;2022-09-13T14:00:25;41.53;;;8.23;;
60370;SDS011;48550;40.588;49.684;2022-09-13T14:11:02;42.25;;;8.30;;
60370;SDS011;48550;40.588;49.684;2022-09-13T14:24:42;55.30;;;9.45;;
60370;SDS011;48550;40.588;49.684;2022-09-13T14:27:16;57.13;;;7.40;;
60370;SDS011;48550;40.588;49.684;2022-09-13T14:29:54;53.22;;;8.48;;
60370;SDS011;48550;40.588;49.684;2022-09-13T14:32:24;61.45;;;8.25;;
60370;SDS011;48550;40.588;49.684;2022-09-13T14:34:56;51.15;;;8.10;;
60370;SDS011;48550;40.588;49.684;2022-09-13T14:37:24;68.20;;;9.98;;
60370;SDS011;48550;40.588;49.684;2022-09-13T14:42:26;62.05;;;12.02;;
60370;SDS011;48550;40.588;49.684;2022-09-13T14:45:01;73.20;;;9.25;;
60370;SDS011;48550;40.588;49.684;2022-09-13T14:47:29;70.35;;;8.55;;
60370;SDS011;48550;40.588;49.684;2022-09-13T14:50:13;41.22;;;8.02;;
60370;SDS011;48550;40.588;49.684;2022-09-13T14:52:50;50.85;;;8.00;;
60370;SDS011;48550;40.588;49.684;2022-09-13T14:55:26;55.75;;;8.43;;
60370;SDS011;48550;40.588;49.684;2022-09-13T14:58:03;50.20;;;9.98;;
60370;SDS011;48550;40.588;49.684;2022-09-13T15:00:33;52.80;;;11.23;;
60370;SDS011;48550;40.588;49.684;2022-09-13T15:03:11;57.63;;;10.15;;
60370;SDS011;48550;40.588;49.684;2022-09-13T15:11:13;44.85;;;8.60;;
60370;SDS011;48550;40.588;49.684;2022-09-13T15:13:40;59.22;;;9.55;;
60370;SDS011;48550;40.588;49.684;2022-09-13T15:16:24;58.42;;;9.32;;
60370;SDS011;48550;40.588;49.684;2022-09-13T15:21:41;48.10;;;9.63;;
60370;SDS011;48550;40.588;49.684;2022-09-13T15:24:29;43.65;;;8.02;;
60370;SDS011;48550;40.588;49.684;2022-09-13T15:27:00;49.70;;;7.70;;
60370;SDS011;48550;40.588;49.684;2022-09-13T15:29:31;43.08;;;8.70;;
60370;SDS011;48550;40.588;49.684;2022-09-13T15:31:59;50.30;;;8.30;;
60370;SDS011;48550;40.588;49.684;2022-09-13T15:34:26;55.80;;;8.75;;
60370;SDS011;48550;40.588;49.684;2022-09-13T15:37:06;39.58;;;7.72;;
60370;SDS011;48550;40.588;49.684;2022-09-13T15:39:44;41.30;;;7.80;;
60370;SDS011;48550;40.588;49.684;2022-09-13T15:42:15;46.47;;;7.25;;
60370;SDS011;48550;40.588;49.684;2022-09-13T15:44:41;57.42;;;7.25;;
60370;SDS011;48550;40.588;49.684;2022-09-13T15:47:09;38.28;;;6.95;;
60370;SDS011;48550;40.588;49.684;2022-09-13T15:49:40;57.13;;;8.07;;
60370;SDS011;48550;40.588;49.684;2022-09-13T15:54:38;53.60;;;6.75;;
60370;SDS011;48550;40.588;49.684;2022-09-13T15:57:13;48.55;;;8.82;;
60370;SDS011;48550;40.588;49.684;2022-09-13T15:59:43;40.70;;;7.60;;
60370;SDS011;48550;40.588;49.684;2022-09-13T16:02:20;46.33;;;8.23;;
60370;SDS011;48550;40.588;49.684;2022-09-13T16:04:50;42.25;;;7.00;;
60370;SDS011;48550;40.588;49.684;2022-09-13T16:07:16;53.17;;;7.15;;
60370;SDS011;48550;40.588;49.684;2022-09-13T16:09:43;54.95;;;9.00;;
60370;SDS011;48550;40.588;49.684;2022-09-13T16:12:09;37.30;;;7.15;;
60370;SDS011;48550;40.588;49.684;2022-09-13T16:14:35;73.65;;;9.32;;
60370;SDS011;48550;40.588;49.684;2022-09-13T16:17:03;54.70;;;7.85;;
60370;SDS011;48550;40.588;49.684;2022-09-13T16:19:36;39.13;;;6.47;;
60370;SDS011;48550;40.588;49.684;2022-09-13T16:22:02;36.15;;;7.32;;
60370;SDS011;48550;40.588;49.684;2022-09-13T16:24:27;30.15;;;6.13;;
60370;SDS011;48550;40.588;49.684;2022-09-13T16:26:55;37.25;;;5.82;;
60370;SDS011;48550;40.588;49.684;2022-09-13T16:29:25;39.75;;;5.32;;
60370;SDS011;48550;40.588;49.684;2022-09-13T16:31:50;37.55;;;7.03;;
60370;SDS011;48550;40.588;49.684;2022-09-13T16:34:16;36.85;;;7.28;;
60370;SDS011;48550;40.588;49.684;2022-09-13T16:36:42;33.90;;;7.25;;
60370;SDS011;48550;40.588;49.684;2022-09-13T16:39:07;31.10;;;5.80;;
60370;SDS011;48550;40.588;49.684;2022-09-13T16:41:33;34.65;;;5.72;;
60370;SDS011;48550;40.588;49.684;2022-09-13T16:43:59;39.78;;;7.18;;
60370;SDS011;48550;40.588;49.684;2022-09-13T16:46:26;38.38;;;5.97;;
60370;SDS011;48550;40.588;49.684;2022-09-13T16:48:53;30.77;;;5.70;;
60370;SDS011;48550;40.588;49.684;2022-09-13T16:51:20;25.90;;;6.88;;
60370;SDS011;48550;40.588;49.684;2022-09-13T16:53:50;40.40;;;5.82;;
60370;SDS011;48550;40.588;49.684;2022-09-13T16:56:18;31.73;;;5.45;;
60370;SDS011;48550;40.588;49.684;2022-09-13T16:58:45;34.47;;;6.82;;
60370;SDS011;48550;40.588;49.684;2022-09-13T17:01:12;29.73;;;5.72;;
60370;SDS011;48550;40.588;49.684;2022-09-13T17:03:40;29.95;;;5.53;;
60370;SDS011;48550;40.588;49.684;2022-09-13T17:06:07;36.30;;;6.82;;
60370;SDS011;48550;40.588;49.684;2022-09-13T17:08:38;43.53;;;6.70;;
60370;SDS011;48550;40.588;49.684;2022-09-13T17:11:06;38.30;;;6.88;;
60370;SDS011;48550;40.588;49.684;2022-09-13T17:13:34;23.63;;;5.25;;
60370;SDS011;48550;40.588;49.684;2022-09-13T17:16:01;30.98;;;6.40;;
60370;SDS011;48550;40.588;49.684;2022-09-13T17:18:27;37.47;;;7.90;;
60370;SDS011;48550;40.588;49.684;2022-09-13T17:20:53;33.95;;;5.50;;
60370;SDS011;48550;40.588;49.684;2022-09-13T17:23:19;35.10;;;5.70;;
60370;SDS011;48550;40.588;49.684;2022-09-13T17:25:45;35.22;;;6.22;;
60370;SDS011;48550;40.588;49.684;2022-09-13T17:28:13;30.25;;;5.80;;
60370;SDS011;48550;40.588;49.684;2022-09-13T17:30:43;38.50;;;6.47;;
60370;SDS011;48550;40.588;49.684;2022-09-13T17:33:10;40.42;;;6.28;;
60370;SDS011;48550;40.588;49.684;2022-09-13T17:35:36;42.70;;;7.43;;
60370;SDS011;48550;40.588;49.684;2022-09-13T17:38:02;33.78;;;6.13;;
60370;SDS011;48550;40.588;49.684;2022-09-13T17:40:28;45.05;;;7.22;;
60370;SDS011;48550;40.588;49.684;2022-09-13T17:42:55;27.20;;;5.80;;
60370;SDS011;48550;40.588;49.684;2022-09-13T17:45:21;37.28;;;6.30;;
60370;SDS011;48550;40.588;49.684;2022-09-13T17:47:50;33.55;;;6.40;;
60370;SDS011;48550;40.588;49.684;2022-09-13T17:50:17;31.85;;;7.28;;
60370;SDS011;48550;40.588;49.684;2022-09-13T17:52:43;42.22;;;8.82;;
60370;SDS011;48550;40.588;49.684;2022-09-13T17:55:08;32.00;;;8.27;;
60370;SDS011;48550;40.588;49.684;2022-09-13T17:57:34;38.95;;;6.80;;
60370;SDS011;48550;40.588;49.684;2022-09-13T18:00:01;31.55;;;6.47;;
60370;SDS011;48550;40.588;49.684;2022-09-13T18:02:29;31.83;;;5.93;;
60370;SDS011;48550;40.588;49.684;2022-09-13T18:04:55;40.28;;;6.53;;
60370;SDS011;48550;40.588;49.684;2022-09-13T18:07:21;16.33;;;4.85;;
60370;SDS011;48550;40.588;49.684;2022-09-13T18:09:46;39.08;;;6.68;;
60370;SDS011;48550;40.588;49.684;2022-09-13T18:12:12;37.22;;;6.35;;
60370;SDS011;48550;40.588;49.684;2022-09-13T18:14:39;38.80;;;10.07;;
60370;SDS011;48550;40.588;49.684;2022-09-13T18:17:04;32.28;;;5.97;;
60370;SDS011;48550;40.588;49.684;2022-09-13T18:22:06;30.02;;;5.60;;
60370;SDS011;48550;40.588;49.684;2022-09-13T18:24:36;35.28;;;6.60;;
60370;SDS011;48550;40.588;49.684;2022-09-13T18:27:02;27.80;;;6.13;;